Dolce Far Niente — CFK9784 — position and weather

sailwx.info

Track history (hours):
 
Tides and Currents Weather Stations Pressure Air Temp Water Temp Dewpoint Dewpoint Depression Visibility Wind Speed Wind Dir Waves Ship Positions

Dolce Far Niente

Last reported at 2017-Apr-22 21:57 UTC. Time now 2017-Apr-26 19:47 UTC.
Position N 48°40' W 123°24'.

Type: Pleasure craft. MMSI: 316020002.

Date/timePositionNaut miles runAvg speedWind from/ knotsBaromVisibWave heightAir tempDewpointWater temp
2017-Apr-22 21:57N 48°40' W 123°24'1 1.9
2017-Apr-22 21:28N 48°41' W 123°23'9 0.4
2017-Apr-21 19:03N 48°50' W 123°24'0 0.0
2017-Apr-21 18:42N 48°50' W 123°24'0 1.8
2017-Apr-21 18:27N 48°50' W 123°24'716.2
2017-Apr-21 18:00N 48°43' W 123°21'  
2017-Apr-18 00:21N 48°40' W 123°24'0 0.0
2017-Apr-17 23:57N 48°40' W 123°24'0 0.0
2017-Apr-17 23:27N 48°40' W 123°24'0 0.0
2017-Apr-17 22:57N 48°40' W 123°24'0 0.0
2017-Apr-17 22:27N 48°40' W 123°24'0 0.0
2017-Apr-17 21:57N 48°40' W 123°24'0 0.0
2017-Apr-17 21:30N 48°40' W 123°24'0 0.0
2017-Apr-17 20:57N 48°40' W 123°24'0 0.0
2017-Apr-17 20:24N 48°40' W 123°24'0 0.0
2017-Apr-15 20:56N 48°40' W 123°24'0 0.8
2017-Apr-15 20:30N 48°40' W 123°24'813.2
2017-Apr-15 19:54N 48°48' W 123°25'5 8.5
2017-Apr-15 19:22N 48°51' W 123°30'0 0.0
2017-Apr-15 18:58N 48°51' W 123°30'0 0.0
2017-Apr-15 17:10N 48°51' W 123°30'1 7.7
2017-Apr-15 17:00N 48°50' W 123°28'815.6
2017-Apr-15 16:30N 48°44' W 123°21'5 7.8
2017-Apr-15 15:54N 48°40' W 123°24'0 0.0
2017-Apr-15 15:30N 48°40' W 123°24'0 0.0
2017-Apr-15 15:00N 48°40' W 123°24'0 0.0
2017-Apr-15 14:30N 48°40' W 123°24'0 0.0
2017-Apr-15 13:30N 48°40' W 123°24'0 0.0
2017-Apr-15 13:00N 48°40' W 123°24'0 0.0
2017-Apr-15 12:30N 48°40' W 123°24'0 0.0
2017-Apr-15 12:00N 48°40' W 123°24'0 0.0
2017-Apr-15 11:30N 48°40' W 123°24'0 0.0
2017-Apr-15 11:00N 48°40' W 123°24'0 0.0
2017-Apr-15 10:30N 48°40' W 123°24'0 0.0
2017-Apr-15 10:00N 48°40' W 123°24'0 0.0
2017-Apr-15 09:21N 48°40' W 123°24'0 0.0
2017-Apr-15 09:00N 48°40' W 123°24'0 0.0
2017-Apr-15 08:30N 48°40' W 123°24'0 0.0
2017-Apr-15 07:57N 48°40' W 123°24'0 0.0
2017-Apr-15 07:27N 48°40' W 123°24'0 0.0
2017-Apr-15 06:57N 48°40' W 123°24'0 0.0
2017-Apr-15 06:30N 48°40' W 123°24'0 0.0
2017-Apr-15 06:00N 48°40' W 123°24'0 0.0
2017-Apr-15 05:30N 48°40' W 123°24'0 0.0
2017-Apr-15 04:57N 48°40' W 123°24'0 0.0
2017-Apr-15 04:27N 48°40' W 123°24'0 0.0
2017-Apr-15 04:00N 48°40' W 123°24'0 0.0
2017-Apr-15 03:30N 48°40' W 123°24'0 0.0
2017-Apr-15 03:00N 48°40' W 123°24'0 0.0
2017-Apr-15 02:27N 48°40' W 123°24'0 0.0
2017-Apr-15 02:00N 48°40' W 123°24'0 0.0
2017-Apr-15 01:30N 48°40' W 123°24'0 0.0
2017-Apr-15 00:57N 48°40' W 123°24'0 0.0
2017-Apr-15 00:30N 48°40' W 123°24'0 0.0
2017-Apr-14 23:57N 48°40' W 123°24'0 0.0
2017-Apr-14 23:30N 48°40' W 123°24'0 0.0
2017-Apr-14 23:00N 48°40' W 123°24'0 0.0
2017-Apr-14 22:30N 48°40' W 123°24'0 0.0
2017-Apr-14 21:57N 48°40' W 123°24'0 0.0
2017-Apr-14 21:27N 48°40' W 123°24'0 0.0
2017-Apr-14 20:45N 48°40' W 123°24'0 0.0
2017-Apr-14 20:27N 48°40' W 123°24'0 0.0
2017-Apr-14 19:57N 48°40' W 123°24'0 0.0
2017-Apr-14 19:27N 48°40' W 123°24'0 0.0
2017-Apr-14 18:57N 48°40' W 123°24'0 0.0
2017-Apr-14 18:27N 48°40' W 123°24'0 0.0
2017-Apr-14 17:57N 48°40' W 123°24'0 0.0
2017-Apr-14 17:27N 48°40' W 123°24'0 0.0
2017-Apr-14 16:57N 48°40' W 123°24'0 0.0
2017-Apr-14 16:27N 48°40' W 123°24'0 0.0
2017-Apr-14 15:57N 48°40' W 123°24'0 0.0
2017-Apr-14 15:30N 48°40' W 123°24'0 0.0
2017-Apr-14 15:00N 48°40' W 123°24'0 0.0
2017-Apr-14 14:27N 48°40' W 123°24'0 0.0
2017-Apr-14 13:30N 48°40' W 123°24'0 0.0
2017-Apr-14 13:00N 48°40' W 123°24'0 0.0
2017-Apr-14 12:30N 48°40' W 123°24'0 0.0
2017-Apr-14 12:00N 48°40' W 123°24'0 0.0
2017-Apr-14 11:27N 48°40' W 123°24'0 0.0
2017-Apr-14 10:57N 48°40' W 123°24'0 0.0
2017-Apr-14 10:30N 48°40' W 123°24'0 0.0
2017-Apr-14 10:00N 48°40' W 123°24'0 0.0
2017-Apr-14 09:30N 48°40' W 123°24'0 0.0
2017-Apr-14 09:00N 48°40' W 123°24'0 0.0
2017-Apr-14 08:30N 48°40' W 123°24'0 0.0
2017-Apr-14 07:58N 48°40' W 123°24'0 0.0
2017-Apr-14 07:28N 48°40' W 123°24'0 0.0
2017-Apr-14 06:58N 48°40' W 123°24'0 0.0
2017-Apr-14 06:28N 48°40' W 123°24'0 0.0
2017-Apr-14 05:58N 48°40' W 123°24'0 0.0
2017-Apr-14 05:28N 48°40' W 123°24'0 0.0
2017-Apr-14 04:58N 48°40' W 123°24'0 0.0
2017-Apr-14 04:28N 48°40' W 123°24'0 0.0
2017-Apr-14 03:58N 48°40' W 123°24'0 0.0
2017-Apr-14 03:28N 48°40' W 123°24'0 0.0
2017-Apr-14 02:58N 48°40' W 123°24'0 0.0
2017-Apr-14 02:28N 48°40' W 123°24'0 0.0
2017-Apr-14 01:58N 48°40' W 123°24'0 0.0
2017-Apr-14 01:28N 48°40' W 123°24'0 0.0
2017-Apr-14 00:58N 48°40' W 123°24'0 0.0
2017-Apr-14 00:28N 48°40' W 123°24'0 0.0
2017-Apr-13 23:58N 48°40' W 123°24'0 0.0
2017-Apr-13 23:28N 48°40' W 123°24'0 0.0
2017-Apr-13 22:58N 48°40' W 123°24'0 0.0
2017-Apr-13 22:28N 48°40' W 123°24'0 0.0
2017-Apr-13 21:58N 48°40' W 123°24'0 0.0
2017-Apr-13 21:28N 48°40' W 123°24'0 0.0
2017-Apr-13 20:58N 48°40' W 123°24'0 0.0
2017-Apr-13 20:28N 48°40' W 123°24'0 0.0
2017-Apr-13 19:58N 48°40' W 123°24'0 0.0
2017-Apr-13 19:28N 48°40' W 123°24'0 0.0
2017-Apr-13 18:58N 48°40' W 123°24'0 0.0
2017-Apr-13 18:28N 48°40' W 123°24'0 0.0
2017-Apr-13 17:58N 48°40' W 123°24'0 0.0
2017-Apr-13 17:28N 48°40' W 123°24'0 0.0
2017-Apr-13 16:58N 48°40' W 123°24'0 0.0
2017-Apr-13 16:28N 48°40' W 123°24'0 0.0
2017-Apr-13 15:58N 48°40' W 123°24'0 0.0
2017-Apr-13 15:25N 48°40' W 123°24'0 0.0
2017-Apr-13 14:58N 48°40' W 123°24'0 0.0
2017-Apr-13 14:28N 48°40' W 123°24'0 0.0
2017-Apr-13 13:28N 48°40' W 123°24'0 0.0
2017-Apr-13 12:58N 48°40' W 123°24'0 0.0
2017-Apr-13 12:28N 48°40' W 123°24'0 0.0
2017-Apr-13 11:58N 48°40' W 123°24'0 0.0
2017-Apr-13 11:28N 48°40' W 123°24'0 0.0
2017-Apr-13 10:58N 48°40' W 123°24'0 0.0
2017-Apr-13 10:28N 48°40' W 123°24'0 0.0
2017-Apr-13 09:58N 48°40' W 123°24'0 0.0
2017-Apr-13 09:30N 48°40' W 123°24'0 0.0
2017-Apr-13 09:00N 48°40' W 123°24'0 0.0
2017-Apr-13 08:30N 48°40' W 123°24'0 0.0
2017-Apr-13 08:00N 48°40' W 123°24'0 0.0
2017-Apr-13 07:30N 48°40' W 123°24'0 0.0
2017-Apr-13 07:00N 48°40' W 123°24'0 0.0
2017-Apr-13 06:30N 48°40' W 123°24'0 0.0
2017-Apr-13 06:00N 48°40' W 123°24'0 0.0
2017-Apr-13 05:30N 48°40' W 123°24'0 0.0
2017-Apr-13 05:00N 48°40' W 123°24'0 0.0
2017-Apr-13 04:30N 48°40' W 123°24'0 0.0
2017-Apr-13 04:00N 48°40' W 123°24'0 0.0
2017-Apr-13 03:27N 48°40' W 123°24'0 0.0
2017-Apr-13 03:00N 48°40' W 123°24'0 0.0
2017-Apr-13 02:27N 48°40' W 123°24'0 0.0
2017-Apr-13 02:00N 48°40' W 123°24'0 0.0
2017-Apr-13 01:30N 48°40' W 123°24'0 0.0
2017-Apr-13 01:00N 48°40' W 123°24'0 0.0
2017-Apr-13 00:30N 48°40' W 123°24'0 0.0
2017-Apr-12 23:57N 48°40' W 123°24'0 0.0
2017-Apr-12 23:30N 48°40' W 123°24'0 0.0
2017-Apr-12 22:57N 48°40' W 123°24'0 0.0
2017-Apr-12 22:27N 48°40' W 123°24'0 0.0
2017-Apr-12 22:00N 48°40' W 123°24'  
Track history (hours):
 
Tides and Currents Weather Stations Pressure Air Temp Water Temp Dewpoint Dewpoint Depression Visibility Wind Speed Wind Dir Waves Ship Positions

Dolce Far Niente

Last reported at 2017-Apr-22 21:57 UTC. Time now 2017-Apr-26 19:47 UTC.
Position N 48°40' W 123°24'.

Type: Pleasure craft. MMSI: 316020002.

Date/timePositionNaut miles runAvg speedWind from/ knotsBaromVisibWave heightAir tempDewpointWater temp
2017-Apr-22 21:57N 48°40' W 123°24'1 1.9
2017-Apr-22 21:28N 48°41' W 123°23'9 0.4
2017-Apr-21 19:03N 48°50' W 123°24'0 0.0
2017-Apr-21 18:42N 48°50' W 123°24'0 1.8
2017-Apr-21 18:27N 48°50' W 123°24'716.2
2017-Apr-21 18:00N 48°43' W 123°21'  
2017-Apr-18 00:21N 48°40' W 123°24'0 0.0
2017-Apr-17 23:57N 48°40' W 123°24'0 0.0
2017-Apr-17 23:27N 48°40' W 123°24'0 0.0
2017-Apr-17 22:57N 48°40' W 123°24'0 0.0
2017-Apr-17 22:27N 48°40' W 123°24'0 0.0
2017-Apr-17 21:57N 48°40' W 123°24'0 0.0
2017-Apr-17 21:30N 48°40' W 123°24'0 0.0
2017-Apr-17 20:57N 48°40' W 123°24'0 0.0
2017-Apr-17 20:24N 48°40' W 123°24'0 0.0
2017-Apr-15 20:56N 48°40' W 123°24'0 0.8
2017-Apr-15 20:30N 48°40' W 123°24'813.2
2017-Apr-15 19:54N 48°48' W 123°25'5 8.5
2017-Apr-15 19:22N 48°51' W 123°30'0 0.0
2017-Apr-15 18:58N 48°51' W 123°30'0 0.0
2017-Apr-15 17:10N 48°51' W 123°30'1 7.7
2017-Apr-15 17:00N 48°50' W 123°28'815.6
2017-Apr-15 16:30N 48°44' W 123°21'5 7.8
2017-Apr-15 15:54N 48°40' W 123°24'0 0.0
2017-Apr-15 15:30N 48°40' W 123°24'0 0.0
2017-Apr-15 15:00N 48°40' W 123°24'0 0.0
2017-Apr-15 14:30N 48°40' W 123°24'0 0.0
2017-Apr-15 13:30N 48°40' W 123°24'0 0.0
2017-Apr-15 13:00N 48°40' W 123°24'0 0.0
2017-Apr-15 12:30N 48°40' W 123°24'0 0.0
2017-Apr-15 12:00N 48°40' W 123°24'0 0.0
2017-Apr-15 11:30N 48°40' W 123°24'0 0.0
2017-Apr-15 11:00N 48°40' W 123°24'0 0.0
2017-Apr-15 10:30N 48°40' W 123°24'0 0.0
2017-Apr-15 10:00N 48°40' W 123°24'0 0.0
2017-Apr-15 09:21N 48°40' W 123°24'0 0.0
2017-Apr-15 09:00N 48°40' W 123°24'0 0.0
2017-Apr-15 08:30N 48°40' W 123°24'0 0.0
2017-Apr-15 07:57N 48°40' W 123°24'0 0.0
2017-Apr-15 07:27N 48°40' W 123°24'0 0.0
2017-Apr-15 06:57N 48°40' W 123°24'0 0.0
2017-Apr-15 06:30N 48°40' W 123°24'0 0.0
2017-Apr-15 06:00N 48°40' W 123°24'0 0.0
2017-Apr-15 05:30N 48°40' W 123°24'0 0.0
2017-Apr-15 04:57N 48°40' W 123°24'0 0.0
2017-Apr-15 04:27N 48°40' W 123°24'0 0.0
2017-Apr-15 04:00N 48°40' W 123°24'0 0.0
2017-Apr-15 03:30N 48°40' W 123°24'0 0.0
2017-Apr-15 03:00N 48°40' W 123°24'0 0.0
2017-Apr-15 02:27N 48°40' W 123°24'0 0.0
2017-Apr-15 02:00N 48°40' W 123°24'0 0.0
2017-Apr-15 01:30N 48°40' W 123°24'0 0.0
2017-Apr-15 00:57N 48°40' W 123°24'0 0.0
2017-Apr-15 00:30N 48°40' W 123°24'0 0.0
2017-Apr-14 23:57N 48°40' W 123°24'0 0.0
2017-Apr-14 23:30N 48°40' W 123°24'0 0.0
2017-Apr-14 23:00N 48°40' W 123°24'0 0.0
2017-Apr-14 22:30N 48°40' W 123°24'0 0.0
2017-Apr-14 21:57N 48°40' W 123°24'0 0.0
2017-Apr-14 21:27N 48°40' W 123°24'0 0.0
2017-Apr-14 20:45N 48°40' W 123°24'0 0.0
2017-Apr-14 20:27N 48°40' W 123°24'0 0.0
2017-Apr-14 19:57N 48°40' W 123°24'0 0.0
2017-Apr-14 19:27N 48°40' W 123°24'0 0.0
2017-Apr-14 18:57N 48°40' W 123°24'0 0.0
2017-Apr-14 18:27N 48°40' W 123°24'0 0.0
2017-Apr-14 17:57N 48°40' W 123°24'0 0.0
2017-Apr-14 17:27N 48°40' W 123°24'0 0.0
2017-Apr-14 16:57N 48°40' W 123°24'0 0.0
2017-Apr-14 16:27N 48°40' W 123°24'0 0.0
2017-Apr-14 15:57N 48°40' W 123°24'0 0.0
2017-Apr-14 15:30N 48°40' W 123°24'0 0.0
2017-Apr-14 15:00N 48°40' W 123°24'0 0.0
2017-Apr-14 14:27N 48°40' W 123°24'0 0.0
2017-Apr-14 13:30N 48°40' W 123°24'0 0.0
2017-Apr-14 13:00N 48°40' W 123°24'0 0.0
2017-Apr-14 12:30N 48°40' W 123°24'0 0.0
2017-Apr-14 12:00N 48°40' W 123°24'0 0.0
2017-Apr-14 11:27N 48°40' W 123°24'0 0.0
2017-Apr-14 10:57N 48°40' W 123°24'0 0.0
2017-Apr-14 10:30N 48°40' W 123°24'0 0.0
2017-Apr-14 10:00N 48°40' W 123°24'0 0.0
2017-Apr-14 09:30N 48°40' W 123°24'0 0.0
2017-Apr-14 09:00N 48°40' W 123°24'0 0.0
2017-Apr-14 08:30N 48°40' W 123°24'0 0.0
2017-Apr-14 07:58N 48°40' W 123°24'0 0.0
2017-Apr-14 07:28N 48°40' W 123°24'0 0.0
2017-Apr-14 06:58N 48°40' W 123°24'0 0.0
2017-Apr-14 06:28N 48°40' W 123°24'0 0.0
2017-Apr-14 05:58N 48°40' W 123°24'0 0.0
2017-Apr-14 05:28N 48°40' W 123°24'0 0.0
2017-Apr-14 04:58N 48°40' W 123°24'0 0.0
2017-Apr-14 04:28N 48°40' W 123°24'0 0.0
2017-Apr-14 03:58N 48°40' W 123°24'0 0.0
2017-Apr-14 03:28N 48°40' W 123°24'0 0.0
2017-Apr-14 02:58N 48°40' W 123°24'0 0.0
2017-Apr-14 02:28N 48°40' W 123°24'0 0.0
2017-Apr-14 01:58N 48°40' W 123°24'0 0.0
2017-Apr-14 01:28N 48°40' W 123°24'0 0.0
2017-Apr-14 00:58N 48°40' W 123°24'0 0.0
2017-Apr-14 00:28N 48°40' W 123°24'0 0.0
2017-Apr-13 23:58N 48°40' W 123°24'0 0.0
2017-Apr-13 23:28N 48°40' W 123°24'0 0.0
2017-Apr-13 22:58N 48°40' W 123°24'0 0.0
2017-Apr-13 22:28N 48°40' W 123°24'0 0.0
2017-Apr-13 21:58N 48°40' W 123°24'0 0.0
2017-Apr-13 21:28N 48°40' W 123°24'0 0.0
2017-Apr-13 20:58N 48°40' W 123°24'0 0.0
2017-Apr-13 20:28N 48°40' W 123°24'0 0.0
2017-Apr-13 19:58N 48°40' W 123°24'0 0.0
2017-Apr-13 19:28N 48°40' W 123°24'0 0.0
2017-Apr-13 18:58N 48°40' W 123°24'0 0.0
2017-Apr-13 18:28N 48°40' W 123°24'0 0.0
2017-Apr-13 17:58N 48°40' W 123°24'0 0.0
2017-Apr-13 17:28N 48°40' W 123°24'0 0.0
2017-Apr-13 16:58N 48°40' W 123°24'0 0.0
2017-Apr-13 16:28N 48°40' W 123°24'0 0.0
2017-Apr-13 15:58N 48°40' W 123°24'0 0.0
2017-Apr-13 15:25N 48°40' W 123°24'0 0.0
2017-Apr-13 14:58N 48°40' W 123°24'0 0.0
2017-Apr-13 14:28N 48°40' W 123°24'0 0.0
2017-Apr-13 13:28N 48°40' W 123°24'0 0.0
2017-Apr-13 12:58N 48°40' W 123°24'0 0.0
2017-Apr-13 12:28N 48°40' W 123°24'0 0.0
2017-Apr-13 11:58N 48°40' W 123°24'0 0.0
2017-Apr-13 11:28N 48°40' W 123°24'0 0.0
2017-Apr-13 10:58N 48°40' W 123°24'0 0.0
2017-Apr-13 10:28N 48°40' W 123°24'0 0.0
2017-Apr-13 09:58N 48°40' W 123°24'0 0.0
2017-Apr-13 09:30N 48°40' W 123°24'0 0.0
2017-Apr-13 09:00N 48°40' W 123°24'0 0.0
2017-Apr-13 08:30N 48°40' W 123°24'0 0.0
2017-Apr-13 08:00N 48°40' W 123°24'0 0.0
2017-Apr-13 07:30N 48°40' W 123°24'0 0.0
2017-Apr-13 07:00N 48°40' W 123°24'0 0.0
2017-Apr-13 06:30N 48°40' W 123°24'0 0.0
2017-Apr-13 06:00N 48°40' W 123°24'0 0.0
2017-Apr-13 05:30N 48°40' W 123°24'0 0.0
2017-Apr-13 05:00N 48°40' W 123°24'0 0.0
2017-Apr-13 04:30N 48°40' W 123°24'0 0.0
2017-Apr-13 04:00N 48°40' W 123°24'0 0.0
2017-Apr-13 03:27N 48°40' W 123°24'0 0.0
2017-Apr-13 03:00N 48°40' W 123°24'0 0.0
2017-Apr-13 02:27N 48°40' W 123°24'0 0.0
2017-Apr-13 02:00N 48°40' W 123°24'0 0.0
2017-Apr-13 01:30N 48°40' W 123°24'0 0.0
2017-Apr-13 01:00N 48°40' W 123°24'0 0.0
2017-Apr-13 00:30N 48°40' W 123°24'0 0.0
2017-Apr-12 23:57N 48°40' W 123°24'0 0.0
2017-Apr-12 23:30N 48°40' W 123°24'0 0.0
2017-Apr-12 22:57N 48°40' W 123°24'0 0.0
2017-Apr-12 22:27N 48°40' W 123°24'0 0.0
2017-Apr-12 22:00N 48°40' W 123°24'  

Dump ship's entire track history